Time;durP1;ratioP1;P1;durP2;ratioP2;P2;SDS_P1;SDS_P2;PMS_P1;PMS_P2;Temp;Humidity;BMP_temperature;BMP_pressure;BME280_temperature;BME280_humidity;BME280_pressure;Samples;Min_cycle;Max_cycle;Signal;HPM_P1;HPM_P2
2023/12/08 00:01:28;;;;;;;20.60;13.90;;;;;;;-0.96;100.00;101286.90;107817;1256;60955;-69
2023/12/08 00:03:56;;;;;;;18.70;12.80;;;;;;;-0.95;100.00;101287.53;107853;1255;60290;-69
2023/12/08 00:06:24;;;;;;;21.00;14.80;;;;;;;-0.96;100.00;101288.37;107849;1257;73823;-69
2023/12/08 00:08:51;;;;;;;21.10;14.00;;;;;;;-0.98;100.00;101290.08;107856;1256;71442;-69
2023/12/08 00:11:19;;;;;;;19.40;13.20;;;;;;;-0.97;100.00;101288.47;107829;1257;72664;-69
2023/12/08 00:13:47;;;;;;;19.60;13.40;;;;;;;-0.98;100.00;101285.06;107777;1255;61239;-69
2023/12/08 00:16:14;;;;;;;20.00;13.70;;;;;;;-1.01;100.00;101284.04;107815;1255;60342;-68
2023/12/08 00:18:42;;;;;;;18.60;13.10;;;;;;;-1.03;100.00;101280.86;107905;1257;74351;-69
2023/12/08 00:21:10;;;;;;;21.50;14.80;;;;;;;-1.02;100.00;101282.54;107866;1256;71247;-69
2023/12/08 00:23:38;;;;;;;18.90;13.30;;;;;;;-1.01;100.00;101278.98;107715;1256;72090;-69
2023/12/08 00:26:05;;;;;;;20.30;13.50;;;;;;;-1.01;100.00;101281.20;107708;1256;60230;-68
2023/12/08 00:28:33;;;;;;;21.80;14.20;;;;;;;-1.01;100.00;101276.31;107788;1257;60189;-69
2023/12/08 00:31:01;;;;;;;20.30;13.50;;;;;;;-1.01;100.00;101275.66;107798;1256;73957;-69
2023/12/08 00:33:28;;;;;;;20.50;13.30;;;;;;;-1.02;100.00;101272.11;107798;1257;72740;-70
2023/12/08 00:35:56;;;;;;;20.80;14.10;;;;;;;-1.05;100.00;101273.08;107735;1257;72904;-69
2023/12/08 00:38:24;;;;;;;19.20;13.20;;;;;;;-1.06;100.00;101276.04;108559;1259;61029;-69
2023/12/08 00:40:52;;;;;;;18.80;13.30;;;;;;;-1.08;100.00;101274.64;107813;1260;60348;-69
2023/12/08 00:43:20;;;;;;;20.80;13.80;;;;;;;-1.08;100.00;101272.17;107775;1256;73956;-69
2023/12/08 00:45:47;;;;;;;20.80;13.60;;;;;;;-1.09;100.00;101269.94;107789;1256;73238;-70
2023/12/08 00:48:15;;;;;;;22.30;14.40;;;;;;;-1.08;100.00;101266.73;107753;1257;72737;-70
2023/12/08 00:50:43;;;;;;;20.50;13.90;;;;;;;-1.08;100.00;101263.99;107754;1256;60320;-69
2023/12/08 00:53:11;;;;;;;19.90;13.20;;;;;;;-1.07;100.00;101260.91;107770;1256;60413;-69
2023/12/08 00:55:38;;;;;;;18.20;12.40;;;;;;;-1.07;100.00;101256.71;109092;1256;73307;-69
2023/12/08 00:58:06;;;;;;;22.50;13.50;;;;;;;-1.06;100.00;101251.73;109060;1255;72746;-69
2023/12/08 01:00:33;;;;;;;20.90;14.00;;;;;;;-1.06;100.00;101248.67;109063;1256;72970;-69
2023/12/08 01:03:01;;;;;;;17.90;12.60;;;;;;;-1.06;100.00;101245.56;109053;1256;59678;-69
2023/12/08 01:05:29;;;;;;;19.50;13.10;;;;;;;-1.07;100.00;101244.33;109061;1255;58779;-69
2023/12/08 01:07:57;;;;;;;19.10;13.30;;;;;;;-1.09;100.00;101241.30;109082;1256;73756;-69
2023/12/08 01:10:25;;;;;;;19.60;13.00;;;;;;;-1.08;100.00;101244.52;109091;1256;74279;-69
2023/12/08 01:12:52;;;;;;;20.40;13.80;;;;;;;-1.07;100.00;101241.96;109070;1256;72677;-69
2023/12/08 01:15:20;;;;;;;17.70;12.60;;;;;;;-1.05;100.00;101241.99;109099;1255;60985;-69
2023/12/08 01:17:47;;;;;;;16.90;12.30;;;;;;;-1.05;100.00;101240.56;109075;1255;59215;-68
2023/12/08 01:20:15;;;;;;;16.50;11.50;;;;;;;-1.03;100.00;101242.98;109092;1254;72152;-69
2023/12/08 01:22:43;;;;;;;15.80;11.80;;;;;;;-1.01;100.00;101234.29;109060;1255;71973;-70
2023/12/08 01:25:10;;;;;;;17.90;12.30;;;;;;;-0.99;100.00;101235.02;109111;1255;71339;-71
2023/12/08 01:27:38;;;;;;;16.40;12.00;;;;;;;-0.99;100.00;101231.84;109094;1255;60113;-70
2023/12/08 01:30:06;;;;;;;17.70;12.70;;;;;;;-0.98;100.00;101229.48;109050;1256;60495;-70
2023/12/08 01:32:34;;;;;;;18.10;12.00;;;;;;;-0.97;100.00;101228.48;109097;1255;72948;-70
2023/12/08 01:35:02;;;;;;;17.60;12.40;;;;;;;-0.96;100.00;101224.73;109078;1256;71814;-69
2023/12/08 01:37:29;;;;;;;17.50;12.10;;;;;;;-0.96;100.00;101223.64;109076;1255;70335;-70
2023/12/08 01:39:57;;;;;;;16.40;11.70;;;;;;;-0.97;100.00;101223.24;109072;1256;59771;-69
2023/12/08 01:42:25;;;;;;;16.70;11.10;;;;;;;-0.96;100.00;101220.15;109116;1255;58082;-69
2023/12/08 01:47:25;;;;;;;17.30;11.50;;;;;;;-0.92;100.00;101219.97;105799;1283;600611;-70
2023/12/08 01:49:53;;;;;;;18.10;11.80;;;;;;;-0.94;100.00;101219.84;107466;1264;60918;-69
2023/12/08 01:52:21;;;;;;;15.70;11.60;;;;;;;-0.95;100.00;101218.65;107472;1264;60341;-70
2023/12/08 01:54:52;;;;;;;16.30;10.90;;;;;;;-0.97;100.00;101220.26;107737;1259;71045;-72
2023/12/08 01:57:19;;;;;;;18.10;11.80;;;;;;;-0.98;100.00;101221.31;107682;1260;71981;-68
2023/12/08 01:59:49;;;;;;;16.40;11.70;;;;;;;-1.00;100.00;101224.10;107458;1257;346734;-70
2023/12/08 02:02:16;;;;;;;17.00;11.00;;;;;;;-1.01;100.00;101228.82;107825;1262;60586;-69
2023/12/08 02:04:45;;;;;;;16.20;11.30;;;;;;;-1.02;100.00;101223.94;107886;1257;60299;-69
2023/12/08 02:07:13;;;;;;;15.90;10.60;;;;;;;-1.02;100.00;101226.05;107858;1257;72042;-70
2023/12/08 02:09:40;;;;;;;16.30;11.30;;;;;;;-1.02;100.00;101223.42;107830;1257;72532;-69
2023/12/08 02:12:08;;;;;;;17.50;11.70;;;;;;;-1.01;100.00;101223.38;107915;1256;71274;-70
2023/12/08 02:14:35;;;;;;;15.10;10.30;;;;;;;-1.02;100.00;101224.30;107918;1257;59601;-69
2023/12/08 02:17:41;;;;;;;16.10;11.10;;;;;;;-1.00;100.00;101224.45;107908;1257;60302;-70
2023/12/08 02:20:11;;;;;;;15.70;10.90;;;;;;;-0.97;100.00;101230.65;107347;1267;73133;-70
2023/12/08 02:22:40;;;;;;;14.30;10.10;;;;;;;-0.96;100.00;101236.65;107735;1260;72696;-69
2023/12/08 02:25:07;;;;;;;16.00;10.90;;;;;;;-0.97;100.00;101233.89;108230;1254;71726;-70
2023/12/08 02:27:34;;;;;;;15.60;10.40;;;;;;;-0.98;100.00;101231.58;108378;1251;59707;-70
2023/12/08 02:30:01;;;;;;;16.20;10.40;;;;;;;-0.96;100.00;101228.69;108320;1253;59378;-70
2023/12/08 02:32:41;;;;;;;17.00;11.70;;;;;;;-0.96;100.00;101229.77;108404;1253;72966;-71
2023/12/08 02:35:08;;;;;;;17.70;11.30;;;;;;;-0.96;100.00;101229.58;108436;1251;72547;-70
2023/12/08 02:37:37;;;;;;;17.90;11.60;;;;;;;-0.95;100.00;101231.25;108366;1254;72675;-70
2023/12/08 02:40:07;;;;;;;15.60;10.50;;;;;;;-0.94;100.00;101233.21;108415;1251;60897;-70
2023/12/08 02:42:35;;;;;;;16.10;10.30;;;;;;;-0.94;100.00;101233.29;108456;1251;60268;-68
2023/12/08 02:45:03;;;;;;;14.20;9.80;;;;;;;-0.93;100.00;101232.48;108321;1255;72841;-69
2023/12/08 02:47:33;;;;;;;15.80;10.90;;;;;;;-0.92;100.00;101233.90;108193;1254;72415;-68
2023/12/08 02:50:00;;;;;;;14.20;9.70;;;;;;;-0.87;100.00;101231.02;108199;1251;71675;-71
2023/12/08 02:52:28;;;;;;;15.00;10.00;;;;;;;-0.86;100.00;101229.04;108414;1253;60943;-70
2023/12/08 02:54:56;;;;;;;13.60;9.10;;;;;;;-0.85;100.00;101227.46;108408;1251;60093;-70
2023/12/08 02:57:23;;;;;;;13.70;9.00;;;;;;;-0.87;100.00;101230.75;108436;1255;72829;-69
2023/12/08 02:59:50;;;;;;;13.60;9.30;;;;;;;-0.89;100.00;101231.36;108324;1255;72709;-69
2023/12/08 03:02:17;;;;;;;13.60;9.30;;;;;;;-0.90;100.00;101230.98;108409;1254;71924;-71
2023/12/08 03:04:44;;;;;;;12.90;9.00;;;;;;;-0.91;100.00;101231.02;108290;1253;61121;-70
2023/12/08 03:07:12;;;;;;;14.70;9.80;;;;;;;-0.91;100.00;101234.55;108354;1254;59490;-71
2023/12/08 03:09:38;;;;;;;14.00;9.80;;;;;;;-0.91;100.00;101234.52;108368;1254;73335;-70
2023/12/08 03:12:05;;;;;;;13.20;8.80;;;;;;;-0.91;100.00;101237.67;108394;1254;72801;-70
2023/12/08 03:14:35;;;;;;;15.40;10.20;;;;;;;-0.90;100.00;101235.47;108298;1256;71413;-69
2023/12/08 03:17:02;;;;;;;14.40;10.20;;;;;;;-0.89;100.00;101239.00;108316;1252;60019;-69
2023/12/08 03:19:29;;;;;;;14.20;8.90;;;;;;;-0.89;100.00;101237.63;108342;1252;60306;-68
2023/12/08 03:21:55;;;;;;;14.40;9.30;;;;;;;-0.89;100.00;101238.39;108402;1253;72954;-70
2023/12/08 03:24:22;;;;;;;13.60;9.10;;;;;;;-0.91;100.00;101238.00;108299;1253;72688;-70
2023/12/08 03:26:49;;;;;;;13.30;8.80;;;;;;;-0.91;100.00;101239.61;108317;1253;72459;-69
2023/12/08 03:29:16;;;;;;;12.90;8.60;;;;;;;-0.90;100.00;101240.06;108311;1252;60719;-69
2023/12/08 03:31:43;;;;;;;13.30;8.90;;;;;;;-0.90;100.00;101240.59;108336;1255;60318;-69
2023/12/08 03:34:10;;;;;;;13.80;8.70;;;;;;;-0.91;100.00;101238.89;108235;1254;74140;-70
2023/12/08 03:36:37;;;;;;;13.50;9.20;;;;;;;-0.92;100.00;101236.98;108381;1253;72754;-69
2023/12/08 03:39:04;;;;;;;11.90;7.80;;;;;;;-0.92;100.00;101234.45;108409;1254;71212;-68
2023/12/08 03:41:31;;;;;;;13.20;9.00;;;;;;;-0.91;100.00;101236.27;108348;1253;59671;-68
2023/12/08 03:43:58;;;;;;;13.60;8.60;;;;;;;-0.91;100.00;101230.89;108388;1252;60256;-69
2023/12/08 03:46:24;;;;;;;13.80;9.20;;;;;;;-0.90;100.00;101228.35;108408;1254;71713;-70
2023/12/08 03:48:51;;;;;;;12.90;8.60;;;;;;;-0.91;100.00;101227.70;108349;1253;72454;-69
2023/12/08 03:51:22;;;;;;;12.10;8.30;;;;;;;-0.91;100.00;101224.63;108330;1251;72719;-69
2023/12/08 03:53:48;;;;;;;13.30;8.80;;;;;;;-0.92;100.00;101225.77;108432;1254;60188;-69
2023/12/08 03:56:15;;;;;;;13.40;8.90;;;;;;;-0.93;100.00;101226.03;108320;1253;60257;-70
2023/12/08 03:58:42;;;;;;;11.90;7.90;;;;;;;-0.92;100.00;101227.96;108415;1253;73016;-70
2023/12/08 04:01:15;;;;;;;12.60;8.10;;;;;;;-0.91;100.00;101226.30;108260;1254;71384;-69
2023/12/08 04:03:42;;;;;;;13.60;9.00;;;;;;;-0.92;100.00;101226.23;108356;1252;71324;-70
2023/12/08 04:06:08;;;;;;;13.10;9.00;;;;;;;-0.94;100.00;101222.07;108360;1256;60349;-70
2023/12/08 04:08:35;;;;;;;14.70;9.50;;;;;;;-0.93;100.00;101219.24;108333;1254;60166;-70
2023/12/08 04:11:03;;;;;;;13.00;8.80;;;;;;;-0.92;100.00;101217.31;108268;1253;71486;-70
2023/12/08 04:13:30;;;;;;;13.90;8.80;;;;;;;-0.90;100.00;101216.58;108315;1253;72615;-70
2023/12/08 04:15:57;;;;;;;11.80;8.20;;;;;;;-0.89;100.00;101217.11;108393;1251;72496;-69
2023/12/08 04:18:24;;;;;;;11.60;8.30;;;;;;;-0.90;100.00;101216.55;108324;1253;61043;-70
2023/12/08 04:20:51;;;;;;;12.70;8.20;;;;;;;-0.91;100.00;101219.35;108325;1253;59541;-69
2023/12/08 04:23:18;;;;;;;12.90;8.50;;;;;;;-0.90;100.00;101220.58;108333;1254;71745;-69
2023/12/08 04:25:45;;;;;;;13.50;8.00;;;;;;;-0.88;100.00;101221.08;108408;1253;71238;-68
2023/12/08 04:28:12;;;;;;;12.30;7.80;;;;;;;-0.87;100.00;101223.36;108277;1253;70949;-68
2023/12/08 04:30:38;;;;;;;13.60;7.80;;;;;;;-0.85;100.00;101229.17;108347;1252;60879;-69
2023/12/08 04:33:05;;;;;;;11.80;7.50;;;;;;;-0.86;100.00;101232.94;108301;1253;59493;-69
2023/12/08 04:35:32;;;;;;;12.10;7.40;;;;;;;-0.86;100.00;101234.90;108396;1253;71569;-70
2023/12/08 04:37:59;;;;;;;12.60;8.10;;;;;;;-0.87;100.00;101236.02;108264;1253;71419;-69
2023/12/08 04:40:26;;;;;;;12.30;7.30;;;;;;;-0.85;100.00;101235.99;108308;1255;72670;-69
2023/12/08 04:42:53;;;;;;;12.40;8.10;;;;;;;-0.86;100.00;101234.30;108319;1252;60877;-69
2023/12/08 04:45:19;;;;;;;12.10;7.50;;;;;;;-0.85;100.00;101230.55;108387;1251;60660;-69
2023/12/08 04:47:46;;;;;;;11.20;7.10;;;;;;;-0.85;100.00;101231.37;108311;1252;73129;-69
2023/12/08 04:50:14;;;;;;;12.60;8.00;;;;;;;-0.84;100.00;101230.64;108367;1254;73952;-69
2023/12/08 04:52:40;;;;;;;11.20;7.30;;;;;;;-0.83;100.00;101228.39;108173;1254;72449;-70
2023/12/08 04:55:08;;;;;;;10.90;7.30;;;;;;;-0.83;100.00;101227.02;108358;1253;61098;-70
2023/12/08 04:57:35;;;;;;;11.70;7.70;;;;;;;-0.82;100.00;101231.24;108440;1252;60288;-69
2023/12/08 05:00:02;;;;;;;10.30;7.20;;;;;;;-0.82;100.00;101226.88;108332;1254;71751;-70
2023/12/08 05:02:30;;;;;;;11.60;7.50;;;;;;;-0.83;100.00;101226.09;108400;1253;72719;-69
2023/12/08 05:04:57;;;;;;;11.30;7.50;;;;;;;-0.83;100.00;101227.56;108316;1255;72599;-69
2023/12/08 05:07:24;;;;;;;11.50;7.00;;;;;;;-0.82;100.00;101227.59;108316;1251;60976;-69
2023/12/08 05:09:52;;;;;;;8.90;5.90;;;;;;;-0.81;100.00;101230.64;108278;1253;59519;-69
2023/12/08 05:12:19;;;;;;;10.40;7.40;;;;;;;-0.82;100.00;101230.61;108357;1254;73168;-69
2023/12/08 05:14:45;;;;;;;11.70;7.70;;;;;;;-0.85;100.00;101231.73;108363;1254;72463;-70
2023/12/08 05:17:12;;;;;;;10.50;7.20;;;;;;;-0.85;100.00;101223.59;108295;1254;72772;-69
2023/12/08 05:19:39;;;;;;;10.10;6.40;;;;;;;-0.87;100.00;101226.55;108247;1253;61249;-69
2023/12/08 05:22:06;;;;;;;11.70;7.60;;;;;;;-0.86;100.00;101226.32;108395;1253;60319;-70
2023/12/08 05:24:33;;;;;;;12.10;7.80;;;;;;;-0.88;100.00;101224.95;108193;1253;71848;-69
2023/12/08 05:27:00;;;;;;;10.00;6.80;;;;;;;-0.89;100.00;101231.10;108285;1254;72504;-69
2023/12/08 05:29:27;;;;;;;11.00;7.10;;;;;;;-0.90;100.00;101230.35;108235;1254;71268;-69
2023/12/08 05:31:54;;;;;;;11.80;7.60;;;;;;;-0.89;100.00;101230.15;108317;1255;60337;-69
2023/12/08 05:34:21;;;;;;;10.80;7.00;;;;;;;-0.88;100.00;101231.04;108247;1254;60188;-69
2023/12/08 05:36:48;;;;;;;11.50;7.50;;;;;;;-0.87;100.00;101230.98;108305;1254;71568;-70
2023/12/08 05:39:16;;;;;;;11.50;7.30;;;;;;;-0.86;100.00;101232.91;108210;1254;72571;-70
2023/12/08 05:41:43;;;;;;;10.30;6.60;;;;;;;-0.86;100.00;101235.33;108302;1254;73700;-67
2023/12/08 05:44:10;;;;;;;10.80;7.10;;;;;;;-0.86;100.00;101235.77;108249;1253;59857;-69
2023/12/08 05:46:37;;;;;;;10.60;7.30;;;;;;;-0.88;100.00;101237.31;108345;1253;60112;-69
2023/12/08 05:49:04;;;;;;;11.30;7.10;;;;;;;-0.86;100.00;101238.19;108260;1254;71872;-69
2023/12/08 05:51:32;;;;;;;10.50;7.00;;;;;;;-0.87;100.00;101239.30;108288;1254;72676;-72
2023/12/08 05:53:59;;;;;;;11.50;7.00;;;;;;;-0.87;100.00;101239.98;108190;1254;72035;-69
2023/12/08 05:56:26;;;;;;;9.90;6.40;;;;;;;-0.87;100.00;101239.86;108270;1254;61202;-70
2023/12/08 05:58:54;;;;;;;11.80;7.40;;;;;;;-0.86;100.00;101241.30;108219;1253;60423;-68
2023/12/08 06:01:22;;;;;;;11.00;6.80;;;;;;;-0.85;100.00;101237.54;108309;1254;73607;-68
2023/12/08 06:03:50;;;;;;;12.80;7.70;;;;;;;-0.85;100.00;101238.26;108277;1254;72699;-70
2023/12/08 06:06:17;;;;;;;10.70;6.70;;;;;;;-0.84;100.00;101237.14;108256;1253;72491;-67
2023/12/08 06:08:44;;;;;;;12.00;7.90;;;;;;;-0.85;100.00;101240.02;108255;1254;60513;-68
2023/12/08 06:11:11;;;;;;;11.60;7.10;;;;;;;-0.89;100.00;101234.84;108322;1253;60318;-68
2023/12/08 06:13:38;;;;;;;11.00;7.10;;;;;;;-0.91;100.00;101233.08;108218;1254;72397;-69
2023/12/08 06:16:05;;;;;;;10.50;6.90;;;;;;;-0.90;100.00;101235.30;108161;1253;72788;-69
2023/12/08 06:18:32;;;;;;;11.90;7.90;;;;;;;-0.88;100.00;101233.52;108305;1254;72515;-69
2023/12/08 06:20:59;;;;;;;12.10;7.60;;;;;;;-0.88;100.00;101233.27;108368;1251;61118;-70
2023/12/08 06:23:32;;;;;;;9.60;6.50;;;;;;;-0.86;100.00;101232.41;108354;1251;60338;-70
2023/12/08 06:26:03;;;;;;;9.50;6.60;;;;;;;-0.86;100.00;101235.14;108346;1251;73823;-68
2023/12/08 06:28:32;;;;;;;10.80;7.50;;;;;;;-0.85;100.00;101238.92;108358;1253;71286;-68
2023/12/08 06:31:08;;;;;;;11.30;6.90;;;;;;;-0.84;100.00;101239.37;108416;1251;71499;-68
2023/12/08 06:33:36;;;;;;;11.90;7.80;;;;;;;-0.83;100.00;101243.92;108345;1251;60466;-68
2023/12/08 06:36:05;;;;;;;10.00;6.90;;;;;;;-0.81;100.00;101240.81;108412;1251;60510;-69
2023/12/08 06:38:33;;;;;;;12.20;7.60;;;;;;;-0.79;100.00;101238.31;108485;1251;72905;-68
2023/12/08 06:41:04;;;;;;;11.50;6.90;;;;;;;-0.77;100.00;101242.91;108412;1253;72672;-68
2023/12/08 06:43:32;;;;;;;10.00;6.30;;;;;;;-0.72;100.00;101243.48;108377;1251;72647;-70
2023/12/08 06:46:01;;;;;;;10.50;6.20;;;;;;;-0.69;100.00;101237.35;108448;1253;60325;-69
2023/12/08 06:48:28;;;;;;;10.10;6.40;;;;;;;-0.66;100.00;101238.65;108354;1252;61332;-68
2023/12/08 06:50:58;;;;;;;10.00;6.40;;;;;;;-0.65;100.00;101239.94;108361;1251;75128;-69
2023/12/08 06:53:26;;;;;;;10.20;7.00;;;;;;;-0.61;100.00;101238.98;108343;1254;71408;-69
2023/12/08 06:55:53;;;;;;;10.50;6.50;;;;;;;-0.59;100.00;101236.84;108447;1251;72663;-68
2023/12/08 06:58:19;;;;;;;11.60;7.90;;;;;;;-0.59;100.00;101238.55;108295;1251;61879;-68
2023/12/08 07:00:48;;;;;;;11.10;7.20;;;;;;;-0.59;100.00;101236.61;108416;1253;60411;-68
2023/12/08 07:03:15;;;;;;;10.90;7.30;;;;;;;-0.56;100.00;101235.86;108336;1252;73611;-69
2023/12/08 07:05:42;;;;;;;11.60;7.00;;;;;;;-0.54;100.00;101235.91;108375;1255;72764;-68
2023/12/08 07:08:09;;;;;;;10.60;6.90;;;;;;;-0.53;100.00;101235.46;108387;1251;72708;-69
2023/12/08 07:10:36;;;;;;;10.40;6.90;;;;;;;-0.50;100.00;101238.67;108448;1251;61035;-69
2023/12/08 07:13:03;;;;;;;10.20;6.70;;;;;;;-0.47;100.00;101236.42;108282;1254;60409;-70
2023/12/08 07:15:30;;;;;;;11.30;7.00;;;;;;;-0.44;100.00;101233.23;108355;1253;73611;-68
2023/12/08 07:17:57;;;;;;;11.80;7.10;;;;;;;-0.40;100.00;101234.54;108355;1251;71342;-68
2023/12/08 07:20:24;;;;;;;10.40;7.00;;;;;;;-0.34;100.00;101236.73;108321;1251;72465;-67
2023/12/08 07:22:52;;;;;;;11.20;7.60;;;;;;;-0.30;100.00;101238.30;108304;1254;61348;-68
2023/12/08 07:25:19;;;;;;;11.40;7.20;;;;;;;-0.23;100.00;101238.70;108284;1253;60464;-68
2023/12/08 07:27:46;;;;;;;9.80;6.60;;;;;;;-0.17;100.00;101237.00;108341;1254;73961;-67
2023/12/08 07:30:13;;;;;;;11.10;7.20;;;;;;;-0.15;100.00;101238.79;108441;1251;72572;-69
2023/12/08 07:32:40;;;;;;;10.70;6.20;;;;;;;-0.14;100.00;101238.85;108309;1252;72666;-68
2023/12/08 07:35:08;;;;;;;9.60;6.70;;;;;;;-0.10;100.00;101237.56;108340;1251;61076;-68
2023/12/08 07:37:39;;;;;;;9.50;6.50;;;;;;;-0.03;100.00;101238.55;108399;1251;61524;-68
2023/12/08 07:40:07;;;;;;;9.50;6.60;;;;;;;-0.05;100.00;101238.04;108366;1253;73886;-67
2023/12/08 07:42:34;;;;;;;9.60;6.70;;;;;;;-0.03;100.00;101241.73;108322;1251;73337;-67
2023/12/08 07:45:00;;;;;;;9.20;6.10;;;;;;;-0.03;100.00;101238.89;108411;1256;72637;-68
2023/12/08 07:47:27;;;;;;;10.90;7.10;;;;;;;0.00;100.00;101239.43;108421;1251;61154;-70
2023/12/08 07:49:55;;;;;;;9.60;6.80;;;;;;;0.03;100.00;101242.49;108392;1251;60302;-69
2023/12/08 07:52:22;;;;;;;10.90;7.10;;;;;;;0.04;99.97;101241.64;108305;1257;73724;-69
2023/12/08 07:54:49;;;;;;;10.00;6.70;;;;;;;0.05;99.65;101240.48;108291;1251;70947;-70
2023/12/08 07:57:16;;;;;;;12.00;7.80;;;;;;;0.07;99.24;101241.96;108350;1256;72806;-68
2023/12/08 07:59:43;;;;;;;10.80;7.40;;;;;;;0.06;98.51;101243.46;108297;1253;60982;-68
2023/12/08 08:02:10;;;;;;;9.50;6.50;;;;;;;0.07;98.24;101239.76;108347;1254;60313;-68
2023/12/08 08:04:37;;;;;;;9.50;6.40;;;;;;;0.10;98.07;101237.73;108317;1254;72698;-67
2023/12/08 08:07:04;;;;;;;11.20;7.50;;;;;;;0.15;97.77;101234.10;108384;1254;72598;-70
2023/12/08 08:09:31;;;;;;;11.80;7.50;;;;;;;0.18;97.39;101231.27;108364;1256;72848;-67
2023/12/08 08:11:59;;;;;;;11.80;7.10;;;;;;;0.15;96.17;101223.36;108395;1253;60990;-68
2023/12/08 08:14:26;;;;;;;11.10;7.10;;;;;;;0.11;95.50;101220.13;108307;1251;60486;-68
2023/12/08 08:16:54;;;;;;;9.90;6.40;;;;;;;0.11;95.45;101218.95;108382;1256;73974;-65
2023/12/08 08:19:21;;;;;;;10.60;7.50;;;;;;;0.13;95.21;101217.89;108339;1251;72477;-69
2023/12/08 08:21:48;;;;;;;10.80;7.90;;;;;;;0.12;94.51;101217.43;108417;1251;71433;-68
2023/12/08 08:24:34;;;;;;;10.00;7.20;;;;;;;0.12;94.05;101217.95;108341;1251;60311;-68
2023/12/08 08:27:02;;;;;;;10.30;7.20;;;;;;;0.14;94.05;101217.03;108409;1254;60325;-68
2023/12/08 08:29:29;;;;;;;10.40;6.80;;;;;;;0.19;94.07;101217.65;108374;1254;73810;-67
2023/12/08 08:31:55;;;;;;;10.90;7.40;;;;;;;0.23;93.73;101215.98;108355;1256;70542;-69
2023/12/08 08:34:22;;;;;;;10.50;6.70;;;;;;;0.25;93.51;101209.69;108270;1256;72514;-67
2023/12/08 08:36:49;;;;;;;10.30;7.00;;;;;;;0.31;93.54;101205.91;108364;1251;60900;-67
2023/12/08 08:39:16;;;;;;;10.40;6.80;;;;;;;0.32;93.04;101202.87;108347;1251;60366;-67
2023/12/08 08:41:44;;;;;;;9.90;6.80;;;;;;;0.32;92.75;101199.60;108411;1251;72049;-68
2023/12/08 08:44:11;;;;;;;9.50;6.50;;;;;;;0.32;92.53;101200.41;108446;1255;72689;-70
2023/12/08 08:46:44;;;;;;;9.90;6.30;;;;;;;0.37;92.61;101197.65;108461;1251;72672;-67
2023/12/08 08:49:11;;;;;;;12.00;7.60;;;;;;;0.42;92.58;101198.61;108276;1251;61116;-68
2023/12/08 08:51:40;;;;;;;9.40;6.60;;;;;;;0.44;92.27;101199.38;108359;1254;60412;-68
2023/12/08 08:54:08;;;;;;;10.70;7.20;;;;;;;0.48;92.14;101193.37;108380;1253;73902;-68
2023/12/08 08:56:35;;;;;;;10.40;6.90;;;;;;;0.51;91.83;101197.30;108390;1252;72704;-67
2023/12/08 08:59:03;;;;;;;10.00;7.10;;;;;;;0.53;91.59;101196.89;108387;1255;72629;-69
2023/12/08 09:01:30;;;;;;;10.20;7.20;;;;;;;0.52;91.24;101195.25;108374;1253;61023;-69
2023/12/08 09:03:57;;;;;;;11.50;7.60;;;;;;;0.51;91.03;101189.91;108371;1252;60325;-68
2023/12/08 09:06:24;;;;;;;10.20;7.20;;;;;;;0.53;91.03;101186.55;108359;1251;73871;-66
2023/12/08 09:08:52;;;;;;;10.50;7.40;;;;;;;0.55;90.89;101183.55;108386;1251;71779;-67
2023/12/08 09:11:19;;;;;;;9.20;6.80;;;;;;;0.59;90.98;101181.28;108207;1256;72541;-67
2023/12/08 09:13:45;;;;;;;10.10;6.80;;;;;;;0.67;91.38;101177.89;108274;1251;61309;-67
2023/12/08 09:16:12;;;;;;;9.20;6.50;;;;;;;0.73;90.95;101177.07;108503;1256;60344;-68
2023/12/08 09:18:39;;;;;;;9.80;6.50;;;;;;;0.72;90.41;101177.69;108436;1256;73652;-68
2023/12/08 09:21:07;;;;;;;10.30;6.50;;;;;;;0.73;89.87;101175.80;108426;1251;72770;-69
2023/12/08 09:23:34;;;;;;;8.90;6.40;;;;;;;0.79;90.00;101173.23;108318;1251;72400;-69
2023/12/08 09:26:01;;;;;;;9.80;7.10;;;;;;;0.82;89.70;101173.17;108404;1251;60775;-68
2023/12/08 09:28:28;;;;;;;10.80;7.00;;;;;;;0.84;89.37;101174.16;108390;1251;60365;-68
2023/12/08 09:30:55;;;;;;;10.60;7.10;;;;;;;0.83;88.90;101175.30;108421;1254;72938;-68
2023/12/08 09:33:22;;;;;;;10.30;7.00;;;;;;;0.84;88.72;101175.22;108365;1254;72430;-68
2023/12/08 09:35:52;;;;;;;9.80;7.00;;;;;;;0.86;88.68;101176.20;108418;1256;71251;-68
2023/12/08 09:38:19;;;;;;;9.70;6.20;;;;;;;0.93;88.92;101175.20;108449;1251;61210;-68
2023/12/08 09:40:59;;;;;;;9.70;6.70;;;;;;;1.03;88.57;101174.30;108392;1251;60229;-68
2023/12/08 09:43:28;;;;;;;9.30;6.50;;;;;;;1.06;87.84;101170.55;108405;1252;73830;-68
2023/12/08 09:45:55;;;;;;;11.00;7.50;;;;;;;1.14;87.79;101168.00;108439;1255;72685;-69
2023/12/08 09:48:23;;;;;;;10.40;7.30;;;;;;;1.22;87.21;101171.91;108428;1251;72414;-68
2023/12/08 09:50:50;;;;;;;10.40;7.10;;;;;;;1.20;85.99;101171.73;108351;1251;60888;-68
2023/12/08 09:53:17;;;;;;;8.80;6.10;;;;;;;1.18;85.53;101171.62;108378;1251;60488;-69
2023/12/08 09:55:47;;;;;;;11.30;6.80;;;;;;;1.21;85.35;101165.88;108415;1251;72669;-68
2023/12/08 09:58:14;;;;;;;8.60;5.90;;;;;;;1.27;85.36;101160.77;108312;1255;72781;-68
2023/12/08 10:00:42;;;;;;;10.10;7.00;;;;;;;1.33;84.96;101154.98;108346;1251;72420;-67
2023/12/08 10:03:09;;;;;;;8.70;6.20;;;;;;;1.34;84.36;101152.85;108369;1253;60859;-67
2023/12/08 10:05:36;;;;;;;9.70;6.40;;;;;;;1.36;83.93;101152.67;108318;1251;60181;-67
2023/12/08 10:08:03;;;;;;;9.10;6.30;;;;;;;1.33;83.32;101155.65;108366;1251;73183;-67
2023/12/08 10:10:30;;;;;;;11.30;7.00;;;;;;;1.33;83.20;101152.89;108475;1257;72545;-68
2023/12/08 10:12:58;;;;;;;9.50;6.50;;;;;;;1.33;83.02;101155.32;108420;1251;72742;-68
2023/12/08 10:15:25;;;;;;;10.60;7.20;;;;;;;1.32;82.53;101155.10;108423;1251;60950;-68
2023/12/08 10:17:52;;;;;;;9.90;6.80;;;;;;;1.31;82.24;101155.20;108357;1251;60254;-67
2023/12/08 10:20:21;;;;;;;9.50;6.40;;;;;;;1.32;82.31;101159.23;108219;1253;75447;-68
2023/12/08 10:22:49;;;;;;;9.90;7.20;;;;;;;1.37;82.40;101154.31;108295;1254;71303;-68
2023/12/08 10:25:25;;;;;;;10.60;7.10;;;;;;;1.39;82.33;101157.36;108431;1251;71559;-67
2023/12/08 10:27:58;;;;;;;10.80;7.40;;;;;;;1.36;81.98;101152.85;108403;1251;60769;-68
2023/12/08 10:30:27;;;;;;;9.10;6.50;;;;;;;1.28;81.88;101159.14;108396;1255;60403;-67
2023/12/08 10:32:54;;;;;;;10.80;7.40;;;;;;;1.25;81.74;101160.50;108422;1251;73855;-68
2023/12/08 10:35:22;;;;;;;9.60;6.90;;;;;;;1.18;81.40;101163.57;108421;1253;73769;-69
2023/12/08 10:37:49;;;;;;;10.60;7.70;;;;;;;1.10;81.66;101162.50;108386;1251;72542;-68
2023/12/08 10:40:17;;;;;;;10.80;8.20;;;;;;;1.04;81.63;101162.52;108416;1253;62760;-68
2023/12/08 10:42:48;;;;;;;8.60;6.20;;;;;;;0.96;81.59;101155.55;108428;1256;60561;-68
2023/12/08 10:45:16;;;;;;;9.60;7.20;;;;;;;0.90;81.82;101150.02;108448;1251;72671;-68
2023/12/08 10:47:44;;;;;;;11.30;7.70;;;;;;;0.89;82.20;101146.61;108372;1256;72701;-68
2023/12/08 10:50:12;;;;;;;10.60;7.80;;;;;;;0.89;82.54;101142.37;108419;1254;72542;-69
2023/12/08 10:52:39;;;;;;;10.70;7.30;;;;;;;0.90;82.75;101137.73;108413;1254;60978;-69
2023/12/08 10:55:07;;;;;;;10.50;7.70;;;;;;;0.95;83.05;101141.69;108339;1254;60438;-68
2023/12/08 10:57:34;;;;;;;11.40;7.70;;;;;;;0.94;83.14;101144.27;108428;1252;73833;-68
2023/12/08 11:00:12;;;;;;;11.10;7.50;;;;;;;0.92;83.25;101149.90;108296;1257;72488;-70
2023/12/08 11:02:40;;;;;;;11.80;7.90;;;;;;;0.94;83.47;101153.48;108348;1254;71757;-69
2023/12/08 11:05:08;;;;;;;10.40;7.10;;;;;;;0.92;83.50;101153.62;108287;1256;61010;-68
2023/12/08 11:07:36;;;;;;;12.10;7.80;;;;;;;0.92;83.66;101157.49;108348;1251;61548;-69
2023/12/08 11:10:06;;;;;;;10.90;7.40;;;;;;;0.96;83.63;101152.80;108369;1257;72678;-68